Time;durP1;ratioP1;P1;durP2;ratioP2;P2;SDS_P1;SDS_P2;PMS_P1;PMS_P2;Temp;Humidity;BMP_temperature;BMP_pressure;BME280_temperature;BME280_humidity;BME280_pressure;Samples;Min_cycle;Max_cycle;Signal;HPM_P1;HPM_P2
2022/01/27 00:00:43;;;;;;;0.40;0.20;;;-0.70;99.90;;;;;;4949780;29;20440;-75
2022/01/27 00:03:33;;;;;;;1.20;0.30;;;-0.70;99.90;;;;;;4948988;28;21113;-75
2022/01/27 00:06:05;;;;;;;0.70;0.70;;;-0.70;99.90;;;;;;4966299;28;20446;-75
2022/01/27 00:08:40;;;;;;;0.70;0.60;;;-0.80;99.90;;;;;;4975204;28;20474;-74
2022/01/27 00:11:14;;;;;;;0.40;0.40;;;-0.80;99.90;;;;;;4974560;28;20392;-75
2022/01/27 00:13:46;;;;;;;0.40;0.20;;;-0.50;99.90;;;;;;4974961;28;20436;-74
2022/01/27 00:16:20;;;;;;;0.57;0.57;;;-0.70;99.90;;;;;;4974200;28;20433;-74
2022/01/27 00:18:51;;;;;;;0.80;0.60;;;-0.90;99.90;;;;;;4974989;28;20876;-76
2022/01/27 00:21:25;;;;;;;0.68;0.68;;;-0.90;99.90;;;;;;4973516;28;20412;-75
2022/01/27 00:23:52;;;;;;;0.40;0.20;;;-0.80;99.90;;;;;;4974759;28;20392;-75
2022/01/27 00:26:20;;;;;;;0.40;0.30;;;-0.70;99.90;;;;;;4974034;28;20392;-75
2022/01/27 00:28:47;;;;;;;0.40;0.20;;;-0.60;99.90;;;;;;4974291;28;20809;-75
2022/01/27 00:31:15;;;;;;;0.40;0.28;;;-0.70;99.90;;;;;;4973511;28;20833;-75
2022/01/27 00:33:42;;;;;;;0.40;0.20;;;-0.60;99.90;;;;;;4974100;28;20876;-75
2022/01/27 00:36:07;;;;;;;0.40;0.20;;;-0.60;99.90;;;;;;4973945;28;20411;-78
2022/01/27 00:38:33;;;;;;;0.40;0.20;;;-0.60;99.90;;;;;;4974143;28;20400;-75
2022/01/27 00:40:59;;;;;;;0.40;0.20;;;-0.60;99.90;;;;;;4974115;28;20427;-75
2022/01/27 00:43:25;;;;;;;0.60;0.60;;;-0.50;99.90;;;;;;4973482;28;20828;-75
2022/01/27 00:45:51;;;;;;;1.15;0.52;;;-0.80;99.90;;;;;;4974068;28;20424;-76
2022/01/27 00:48:17;;;;;;;0.40;0.40;;;-0.70;99.90;;;;;;4973525;28;20725;-76
2022/01/27 00:50:48;;;;;;;0.90;0.70;;;-1.00;99.90;;;;;;4974113;28;20389;-75
2022/01/27 00:54:04;;;;;;;0.40;0.30;;;-0.90;99.90;;;;;;4974214;28;20454;-75
2022/01/27 00:56:16;;;;;;;0.40;0.40;;;-0.80;99.90;;;;;;4970950;28;20411;-76
2022/01/27 00:59:30;;;;;;;0.40;0.30;;;-0.80;99.90;;;;;;4981322;28;20398;-76
2022/01/27 01:01:40;;;;;;;0.40;0.20;;;-0.80;99.90;;;;;;4986904;28;20880;-76
2022/01/27 01:04:08;;;;;;;2.10;1.90;;;-0.70;99.90;;;;;;4992291;28;20410;-75
2022/01/27 01:06:44;;;;;;;0.50;0.50;;;-0.60;99.90;;;;;;4990789;28;20820;-75
2022/01/27 01:10:10;;;;;;;0.70;0.50;;;-0.80;99.90;;;;;;4992002;28;20402;-75
2022/01/27 01:13:11;;;;;;;0.70;0.50;;;-0.60;99.90;;;;;;4992758;28;20443;-75
2022/01/27 01:15:14;;;;;;;0.40;0.30;;;-0.70;99.90;;;;;;4992585;28;20468;-76
2022/01/27 01:31:32;;;;;;;1.85;0.75;;;-0.60;99.90;;;;;;4971040;28;20396;-75
2022/01/27 01:36:45;;;;;;;0.40;0.20;;;-0.70;99.90;;;;;;4992426;28;20403;-75
2022/01/27 01:39:12;;;;;;;0.40;0.20;;;-0.70;99.90;;;;;;4992668;28;20402;-75
2022/01/27 01:41:38;;;;;;;0.40;0.40;;;-0.50;99.90;;;;;;4991338;28;20889;-75
2022/01/27 01:44:05;;;;;;;0.40;0.20;;;-0.60;99.90;;;;;;4991517;28;20394;-75
2022/01/27 01:46:30;;;;;;;0.40;0.20;;;-0.70;99.90;;;;;;4992280;28;20469;-75
2022/01/27 01:48:56;;;;;;;0.40;0.40;;;-0.70;99.90;;;;;;4991229;28;20485;-75
2022/01/27 01:51:27;;;;;;;0.40;0.20;;;-0.70;99.90;;;;;;4992405;28;20402;-75
2022/01/27 01:53:54;;;;;;;0.90;0.50;;;-0.70;99.90;;;;;;4991671;28;20389;-75
2022/01/27 01:56:20;;;;;;;0.40;0.30;;;-0.80;99.90;;;;;;4992587;28;20382;-75
2022/01/27 01:58:46;;;;;;;0.40;0.22;;;-0.70;99.90;;;;;;4982393;28;20675;-75
2022/01/27 02:01:12;;;;;;;0.45;0.35;;;-0.70;99.90;;;;;;4972189;28;20411;-75
2022/01/27 02:03:38;;;;;;;0.40;0.20;;;-0.80;99.90;;;;;;4972309;28;20772;-75
2022/01/27 02:06:04;;;;;;;0.40;0.20;;;-0.80;99.90;;;;;;4971466;28;20440;-75
2022/01/27 02:19:18;;;;;;;0.40;0.20;;;-0.90;99.90;;;;;;4971564;28;20749;-76
2022/01/27 02:21:45;;;;;;;0.50;0.50;;;-0.80;99.90;;;;;;4972268;28;20918;-75
2022/01/27 02:24:11;;;;;;;0.40;0.20;;;-0.80;99.90;;;;;;4971177;28;20943;-76
2022/01/27 02:26:36;;;;;;;0.83;0.73;;;-0.90;99.90;;;;;;4972176;28;20403;-75
2022/01/27 02:29:02;;;;;;;0.40;0.20;;;-1.00;99.90;;;;;;4970984;28;20388;-76
2022/01/27 02:31:28;;;;;;;0.40;0.20;;;-0.90;99.90;;;;;;4970462;28;20794;-76
2022/01/27 02:33:57;;;;;;;0.40;0.20;;;-0.90;99.90;;;;;;4972004;28;20730;-76
2022/01/27 02:36:23;;;;;;;0.40;0.20;;;-1.00;99.90;;;;;;4971560;28;20412;-75
2022/01/27 02:38:49;;;;;;;0.40;0.20;;;-1.10;99.90;;;;;;4972111;28;20380;-75
2022/01/27 02:41:16;;;;;;;0.40;0.40;;;-1.00;99.90;;;;;;4986665;28;20407;-75
2022/01/27 02:43:42;;;;;;;0.70;0.70;;;-1.10;99.90;;;;;;4972020;28;20403;-75
2022/01/27 02:46:15;;;;;;;0.40;0.30;;;-1.00;99.90;;;;;;4972166;28;20412;-75
2022/01/27 02:48:40;;;;;;;0.40;0.30;;;-0.90;99.90;;;;;;4971808;28;20403;-75
2022/01/27 02:51:06;;;;;;;1.10;0.70;;;-1.20;99.90;;;;;;4972082;28;20749;-75
2022/01/27 02:53:32;;;;;;;0.40;0.40;;;-1.10;99.90;;;;;;4970951;28;20389;-76
2022/01/27 02:55:57;;;;;;;0.50;0.50;;;-1.10;99.90;;;;;;4972161;28;20396;-75
2022/01/27 02:58:23;;;;;;;0.40;0.20;;;-1.20;99.90;;;;;;4977172;28;20402;-75
2022/01/27 03:00:49;;;;;;;0.40;0.20;;;-1.20;99.90;;;;;;4990561;28;20394;-75
2022/01/27 03:03:15;;;;;;;0.40;0.40;;;-1.40;99.90;;;;;;4989826;28;20398;-75
2022/01/27 03:05:40;;;;;;;0.40;0.30;;;-1.30;99.90;;;;;;4990006;28;20434;-75
2022/01/27 03:08:06;;;;;;;0.40;0.20;;;-1.20;99.90;;;;;;4989999;28;20394;-75
2022/01/27 03:10:37;;;;;;;0.40;0.40;;;-1.00;99.90;;;;;;4991316;28;20775;-75
2022/01/27 03:13:03;;;;;;;0.40;0.20;;;-1.10;99.90;;;;;;4991319;28;20421;-75
2022/01/27 03:15:29;;;;;;;0.70;0.70;;;-1.10;99.90;;;;;;4990761;28;20438;-75
2022/01/27 03:17:55;;;;;;;0.40;0.20;;;-1.10;99.90;;;;;;4990143;28;20425;-76
2022/01/27 03:20:21;;;;;;;0.40;0.20;;;-1.10;99.90;;;;;;4991161;28;20382;-75
2022/01/27 03:22:46;;;;;;;0.50;0.50;;;-1.10;99.90;;;;;;4989073;28;20401;-76
2022/01/27 03:25:12;;;;;;;0.40;0.20;;;-1.20;99.90;;;;;;4991271;28;21003;-75
2022/01/27 03:27:44;;;;;;;0.40;0.20;;;-1.20;99.90;;;;;;4991041;28;20382;-76
2022/01/27 03:30:10;;;;;;;0.40;0.20;;;-1.20;99.90;;;;;;4990610;28;20418;-75
2022/01/27 03:32:36;;;;;;;1.40;0.70;;;-1.20;99.90;;;;;;4989951;28;20478;-75
2022/01/27 03:35:02;;;;;;;0.40;0.30;;;-1.20;99.90;;;;;;4990467;28;20528;-75
2022/01/27 03:37:28;;;;;;;0.57;0.57;;;-0.90;99.90;;;;;;4991137;28;20398;-75
2022/01/27 03:39:54;;;;;;;2.00;0.70;;;-1.20;99.90;;;;;;4993643;28;20420;-76
2022/01/27 03:42:19;;;;;;;0.40;0.30;;;-1.20;99.90;;;;;;4994379;28;20387;-75
2022/01/27 03:44:45;;;;;;;0.80;0.80;;;-1.20;99.90;;;;;;4994456;28;20767;-75
2022/01/27 03:47:11;;;;;;;0.40;0.30;;;-1.30;99.90;;;;;;4993862;28;20397;-75
2022/01/27 03:49:36;;;;;;;0.40;0.20;;;-1.40;99.90;;;;;;4995020;28;20401;-75
2022/01/27 03:52:02;;;;;;;0.70;0.50;;;-1.30;99.90;;;;;;4994481;28;20473;-75
2022/01/27 03:54:30;;;;;;;0.40;0.20;;;-1.30;99.90;;;;;;4993904;28;20390;-75
2022/01/27 03:56:57;;;;;;;3.10;0.80;;;-1.30;99.90;;;;;;4993472;28;20391;-75
2022/01/27 03:59:23;;;;;;;0.50;0.50;;;-1.40;99.90;;;;;;4980022;28;20892;-76
2022/01/27 04:01:48;;;;;;;0.90;0.60;;;-1.30;99.90;;;;;;4975117;28;20380;-75
2022/01/27 04:04:14;;;;;;;0.40;0.30;;;-1.40;99.90;;;;;;4974656;28;20439;-75
2022/01/27 04:06:41;;;;;;;0.40;0.20;;;-1.40;99.90;;;;;;4974348;28;20451;-75
2022/01/27 04:09:09;;;;;;;0.70;0.70;;;-1.30;99.90;;;;;;4974837;28;20877;-75
2022/01/27 04:11:36;;;;;;;0.40;0.20;;;-1.30;99.90;;;;;;4974453;28;20448;-75
2022/01/27 04:14:02;;;;;;;0.40;0.20;;;-1.30;99.90;;;;;;4974672;28;20396;-75
2022/01/27 04:16:28;;;;;;;0.60;0.60;;;-1.20;99.90;;;;;;4974188;28;20400;-76
2022/01/27 04:18:53;;;;;;;0.40;0.40;;;-1.40;99.90;;;;;;4974466;28;20877;-75
2022/01/27 04:21:19;;;;;;;0.40;0.35;;;-1.20;99.90;;;;;;4974609;28;20825;-75
2022/01/27 04:23:46;;;;;;;0.60;0.60;;;-1.20;99.90;;;;;;4974224;28;20475;-75
2022/01/27 04:26:15;;;;;;;0.40;0.20;;;-1.00;99.90;;;;;;4974783;28;20412;-76
2022/01/27 04:28:42;;;;;;;0.40;0.20;;;-1.10;99.90;;;;;;4973868;28;20733;-76
2022/01/27 04:31:10;;;;;;;0.40;0.40;;;-1.00;99.90;;;;;;4974731;28;20384;-75
2022/01/27 04:33:37;;;;;;;1.80;0.60;;;-1.10;99.90;;;;;;4974778;28;20431;-75
2022/01/27 04:36:10;;;;;;;0.40;0.20;;;-1.20;99.90;;;;;;4974024;28;20650;-76
2022/01/27 04:38:47;;;;;;;0.80;0.50;;;-1.20;99.90;;;;;;4974714;28;20396;-76
2022/01/27 04:41:27;;;;;;;0.40;0.20;;;-1.00;99.90;;;;;;4974803;28;20381;-76
2022/01/27 04:44:01;;;;;;;0.47;0.47;;;-1.00;99.90;;;;;;4974056;28;20392;-76
2022/01/27 04:48:56;;;;;;;0.40;0.20;;;-0.90;99.90;;;;;;4974199;28;20451;-76
2022/01/27 04:51:23;;;;;;;0.50;0.50;;;-1.00;99.90;;;;;;4974353;28;20393;-76
2022/01/27 04:56:17;;;;;;;1.20;0.60;;;-1.00;99.90;;;;;;4973665;28;20511;-75
2022/01/27 04:58:45;;;;;;;0.50;0.50;;;-0.90;99.90;;;;;;4981136;28;20394;-75
2022/01/27 05:01:12;;;;;;;0.40;0.20;;;-0.80;99.90;;;;;;4992754;28;20387;-75
2022/01/27 05:03:46;;;;;;;0.40;0.20;;;-0.70;99.90;;;;;;4993678;28;20386;-76
2022/01/27 05:06:12;;;;;;;0.40;0.30;;;-0.90;99.90;;;;;;4992316;28;20481;-76
2022/01/27 05:08:37;;;;;;;0.60;0.20;;;-1.10;99.90;;;;;;4993290;28;20418;-76
2022/01/27 05:11:49;;;;;;;0.40;0.20;;;-1.00;99.90;;;;;;4992785;28;20383;-76
2022/01/27 05:16:18;;;;;;;0.50;0.50;;;-0.90;99.90;;;;;;4992946;28;20397;-76
2022/01/27 05:18:44;;;;;;;0.50;0.50;;;-0.80;99.90;;;;;;4993482;28;20911;-76
2022/01/27 05:21:10;;;;;;;0.40;0.20;;;-0.80;99.90;;;;;;4993378;28;20469;-76
2022/01/27 05:23:35;;;;;;;0.80;0.60;;;-1.00;99.90;;;;;;4992879;28;20387;-76
2022/01/27 05:26:01;;;;;;;1.80;0.70;;;-1.00;99.90;;;;;;4992855;28;20875;-76
2022/01/27 05:28:27;;;;;;;0.40;0.30;;;-0.90;99.90;;;;;;4992293;28;20398;-76
2022/01/27 05:30:52;;;;;;;0.80;0.80;;;-1.10;99.90;;;;;;4992782;28;20739;-76
2022/01/27 05:33:18;;;;;;;0.50;0.50;;;-1.10;99.90;;;;;;4993147;28;20396;-76
2022/01/27 05:35:45;;;;;;;0.40;0.20;;;-1.10;99.90;;;;;;4992348;28;20401;-76
2022/01/27 05:38:13;;;;;;;0.40;0.20;;;-1.10;99.90;;;;;;4992913;28;20836;-76
2022/01/27 05:40:39;;;;;;;0.40;0.20;;;-1.20;99.90;;;;;;4992208;28;20863;-77
2022/01/27 05:43:05;;;;;;;0.40;0.40;;;-1.20;99.90;;;;;;4993097;28;20405;-76
2022/01/27 05:45:30;;;;;;;0.40;0.20;;;-1.20;99.90;;;;;;4995552;28;20413;-75
2022/01/27 05:47:56;;;;;;;0.40;0.20;;;-1.20;99.90;;;;;;4994515;28;20405;-76
2022/01/27 05:50:22;;;;;;;0.40;0.40;;;-1.00;99.90;;;;;;4992365;28;20485;-76
2022/01/27 05:52:48;;;;;;;0.40;0.20;;;-1.30;99.90;;;;;;4992081;28;20395;-76
2022/01/27 05:55:44;;;;;;;0.40;0.20;;;-1.30;99.90;;;;;;4992400;28;20386;-75
2022/01/27 05:58:10;;;;;;;1.50;0.70;;;-1.30;99.90;;;;;;4991963;28;20387;-76
2022/01/27 06:00:35;;;;;;;0.40;0.40;;;-1.40;99.90;;;;;;4992459;28;20390;-75
2022/01/27 06:03:02;;;;;;;0.80;0.80;;;-1.40;99.90;;;;;;4991138;28;20397;-76
2022/01/27 06:05:28;;;;;;;0.40;0.20;;;-1.60;99.90;;;;;;4992127;28;20450;-75
2022/01/27 06:07:55;;;;;;;0.40;0.20;;;-1.50;99.90;;;;;;4991789;28;20492;-75
2022/01/27 06:10:21;;;;;;;0.40;0.20;;;-1.50;99.90;;;;;;4992020;28;20452;-76
2022/01/27 06:12:53;;;;;;;0.40;0.20;;;-1.40;99.90;;;;;;4992307;28;20389;-76
2022/01/27 06:15:20;;;;;;;0.40;0.20;;;-1.30;99.90;;;;;;4991227;28;20962;-76
2022/01/27 06:17:46;;;;;;;0.40;0.20;;;-1.40;99.90;;;;;;4992420;28;20386;-76
2022/01/27 06:20:13;;;;;;;0.43;0.35;;;-1.20;99.90;;;;;;4990677;28;20390;-77
2022/01/27 06:22:39;;;;;;;0.40;0.20;;;-1.40;99.90;;;;;;4992046;28;20450;-76
2022/01/27 06:25:06;;;;;;;0.40;0.20;;;-1.20;99.90;;;;;;4991753;28;20885;-76
2022/01/27 06:27:31;;;;;;;0.40;0.20;;;-1.10;99.90;;;;;;4990456;28;20490;-76
2022/01/27 06:29:57;;;;;;;0.40;0.20;;;-1.00;99.90;;;;;;4991922;28;20466;-76
2022/01/27 06:32:22;;;;;;;0.40;0.20;;;-1.20;99.90;;;;;;4991318;28;20390;-77
2022/01/27 06:34:48;;;;;;;0.40;0.20;;;-1.40;99.90;;;;;;4992153;28;20951;-76
2022/01/27 06:37:14;;;;;;;0.50;0.40;;;-1.30;99.90;;;;;;4990671;28;20759;-76
2022/01/27 06:39:40;;;;;;;0.40;0.20;;;-1.30;99.90;;;;;;4991399;28;20525;-76
2022/01/27 06:42:07;;;;;;;0.70;0.70;;;-1.10;99.90;;;;;;4990361;28;20486;-76
2022/01/27 06:44:34;;;;;;;0.40;0.30;;;-1.10;99.90;;;;;;4990995;28;20485;-76
2022/01/27 06:47:00;;;;;;;0.40;0.30;;;-1.10;99.90;;;;;;4991341;28;20863;-76
2022/01/27 06:49:26;;;;;;;0.60;0.60;;;-1.00;99.90;;;;;;4991114;28;20486;-76
2022/01/27 06:51:52;;;;;;;0.40;0.20;;;-1.00;99.90;;;;;;4990552;28;20473;-76
2022/01/27 06:54:18;;;;;;;0.40;0.30;;;-0.90;99.90;;;;;;4991717;28;20389;-76
2022/01/27 06:56:45;;;;;;;0.40;0.40;;;-1.00;99.90;;;;;;4990608;28;20386;-76
2022/01/27 06:59:11;;;;;;;0.50;0.50;;;-1.10;99.90;;;;;;4991231;28;20399;-76
2022/01/27 07:01:36;;;;;;;0.80;0.70;;;-1.10;99.90;;;;;;4989808;28;20401;-76
2022/01/27 07:04:03;;;;;;;0.40;0.40;;;-1.10;99.90;;;;;;4990841;28;20386;-76
2022/01/27 07:06:29;;;;;;;0.40;0.20;;;-1.20;99.90;;;;;;4990971;28;20499;-76
2022/01/27 07:08:54;;;;;;;0.40;0.20;;;-1.40;99.90;;;;;;4990805;28;20481;-76
2022/01/27 07:11:20;;;;;;;0.40;0.20;;;-1.40;99.90;;;;;;5006437;28;20407;-76
2022/01/27 07:13:46;;;;;;;0.60;0.60;;;-1.20;99.90;;;;;;4990675;28;20418;-77
2022/01/27 07:16:12;;;;;;;0.60;0.60;;;-1.40;99.90;;;;;;4990973;28;20389;-76
2022/01/27 07:18:38;;;;;;;0.80;0.70;;;-1.30;99.90;;;;;;4991540;28;20863;-76
2022/01/27 07:21:04;;;;;;;0.40;0.20;;;-1.50;99.90;;;;;;4990895;28;20394;-76
2022/01/27 07:23:30;;;;;;;0.55;0.55;;;-1.40;99.90;;;;;;4991166;28;20726;-76
2022/01/27 07:25:56;;;;;;;0.40;0.20;;;-1.20;99.90;;;;;;4990420;28;20411;-77
2022/01/27 07:28:22;;;;;;;0.40;0.20;;;-1.20;99.90;;;;;;4991275;28;20394;-76
2022/01/27 07:30:48;;;;;;;0.40;0.20;;;-1.00;99.90;;;;;;4990972;28;20452;-76
2022/01/27 07:33:14;;;;;;;0.40;0.40;;;-1.10;99.90;;;;;;4990363;28;20828;-76
2022/01/27 07:35:41;;;;;;;0.40;0.20;;;-1.10;99.90;;;;;;4991124;28;20485;-76
2022/01/27 07:38:07;;;;;;;0.40;0.30;;;-1.10;99.90;;;;;;4990385;28;20425;-76
2022/01/27 07:40:33;;;;;;;0.40;0.20;;;-1.20;99.90;;;;;;4991283;28;20461;-77
2022/01/27 07:42:58;;;;;;;0.60;0.60;;;-1.10;99.90;;;;;;4991464;28;20787;-76
2022/01/27 07:45:24;;;;;;;0.40;0.20;;;-1.10;99.90;;;;;;4990419;28;20415;-77
2022/01/27 07:47:50;;;;;;;0.40;0.30;;;-1.00;99.90;;;;;;4989711;28;20405;-76
2022/01/27 07:50:16;;;;;;;0.40;0.20;;;-1.10;99.90;;;;;;4988902;28;20444;-76
2022/01/27 07:52:41;;;;;;;0.50;0.50;;;-1.00;99.90;;;;;;4991449;28;20401;-76
2022/01/27 07:55:09;;;;;;;0.40;0.30;;;-1.00;99.90;;;;;;4973620;28;20865;-76
2022/01/27 07:57:34;;;;;;;0.50;0.50;;;-0.90;99.90;;;;;;4990292;28;20394;-76
2022/01/27 08:00:00;;;;;;;0.40;0.20;;;-0.90;99.90;;;;;;4991026;28;20389;-76
2022/01/27 08:02:26;;;;;;;0.40;0.40;;;-0.80;99.90;;;;;;4990081;28;20428;-76
2022/01/27 08:05:08;;;;;;;0.50;0.50;;;-0.90;99.90;;;;;;4990702;28;20498;-76
2022/01/27 08:07:34;;;;;;;0.60;0.60;;;-1.00;99.90;;;;;;4990569;28;20425;-76
2022/01/27 08:09:59;;;;;;;0.40;0.30;;;-1.00;99.90;;;;;;4990674;28;20863;-76
2022/01/27 08:12:25;;;;;;;0.40;0.30;;;-1.00;99.90;;;;;;4990423;28;20434;-77
2022/01/27 08:14:51;;;;;;;1.70;0.80;;;-1.00;99.90;;;;;;4990465;28;20386;-76
2022/01/27 08:17:17;;;;;;;0.60;0.60;;;-0.90;99.90;;;;;;4990865;28;20414;-76
2022/01/27 08:19:44;;;;;;;0.50;0.50;;;-0.90;99.90;;;;;;4989571;28;20422;-75
2022/01/27 08:22:10;;;;;;;1.20;1.10;;;-0.60;99.90;;;;;;4990511;28;20383;-76
2022/01/27 08:24:40;;;;;;;0.50;0.50;;;-0.90;99.90;;;;;;4990807;28;20859;-76
2022/01/27 08:27:08;;;;;;;0.80;0.70;;;-1.00;99.90;;;;;;4993361;28;20505;-76
2022/01/27 08:29:44;;;;;;;0.40;0.30;;;-1.10;99.90;;;;;;4994343;28;20418;-76
2022/01/27 08:32:16;;;;;;;0.40;0.25;;;-0.90;99.90;;;;;;4994303;28;20473;-77
2022/01/27 08:34:43;;;;;;;0.40;0.20;;;-1.10;99.90;;;;;;4993425;28;20386;-77
2022/01/27 08:37:14;;;;;;;0.40;0.20;;;-1.20;99.90;;;;;;4993836;28;20415;-77
2022/01/27 08:39:41;;;;;;;0.40;0.20;;;-1.00;99.90;;;;;;4994200;28;20893;-77
2022/01/27 08:42:08;;;;;;;0.50;0.40;;;-1.10;99.90;;;;;;4993580;28;20394;-77
2022/01/27 08:44:35;;;;;;;0.40;0.20;;;-1.00;99.90;;;;;;4993981;28;20422;-77
2022/01/27 08:47:01;;;;;;;0.40;0.20;;;-1.00;99.90;;;;;;4993200;28;20415;-76
2022/01/27 08:49:28;;;;;;;0.40;0.30;;;-1.00;99.90;;;;;;4993707;28;20403;-76
2022/01/27 08:51:55;;;;;;;1.00;0.80;;;-1.00;99.90;;;;;;4993327;28;20460;-76
2022/01/27 08:54:21;;;;;;;0.40;0.20;;;-0.50;99.90;;;;;;4994056;28;20397;-76
2022/01/27 08:56:47;;;;;;;0.40;0.40;;;-0.60;99.90;;;;;;4992134;28;20395;-76
2022/01/27 08:59:16;;;;;;;0.40;0.20;;;-0.80;99.90;;;;;;4980382;28;20391;-76
2022/01/27 09:01:42;;;;;;;1.20;0.70;;;-0.90;99.90;;;;;;4974063;28;20400;-76
2022/01/27 09:04:09;;;;;;;0.70;0.70;;;-0.90;99.90;;;;;;4973512;28;20865;-76
2022/01/27 09:06:35;;;;;;;0.40;0.30;;;-0.80;99.90;;;;;;4974173;28;20435;-76
2022/01/27 09:09:01;;;;;;;0.40;0.30;;;-0.60;99.90;;;;;;4974026;28;20935;-77
2022/01/27 09:11:31;;;;;;;0.40;0.20;;;-0.60;99.90;;;;;;4973874;28;20412;-76
2022/01/27 09:13:58;;;;;;;0.40;0.32;;;-0.50;99.90;;;;;;4972766;28;20475;-75
2022/01/27 09:16:28;;;;;;;0.40;0.40;;;-0.60;99.90;;;;;;4973259;28;20539;-75
2022/01/27 09:18:57;;;;;;;0.40;0.20;;;-0.80;99.90;;;;;;4973974;28;20392;-76
2022/01/27 09:21:27;;;;;;;0.40;0.30;;;-0.90;99.90;;;;;;4973200;28;20400;-76
2022/01/27 09:23:54;;;;;;;0.93;0.88;;;-0.80;99.90;;;;;;4974047;28;20737;-77
2022/01/27 09:26:39;;;;;;;1.30;0.70;;;-0.80;99.90;;;;;;4972863;28;20420;-76
2022/01/27 09:29:05;;;;;;;0.40;0.20;;;-0.60;99.90;;;;;;4972436;28;20408;-75
2022/01/27 09:31:32;;;;;;;0.40;0.40;;;-0.90;99.90;;;;;;4971522;28;20900;-76
2022/01/27 09:33:57;;;;;;;0.70;0.70;;;-0.90;99.90;;;;;;4973426;28;20403;-77
2022/01/27 09:36:23;;;;;;;0.40;0.20;;;-0.80;99.90;;;;;;4972830;28;20400;-77
2022/01/27 09:38:49;;;;;;;0.40;0.20;;;-0.60;99.90;;;;;;4973256;28;20877;-76
2022/01/27 09:41:19;;;;;;;1.50;1.40;;;-0.90;99.90;;;;;;4973938;28;20419;-76
2022/01/27 09:43:47;;;;;;;0.40;0.20;;;-0.80;99.90;;;;;;4973275;28;20880;-75
2022/01/27 09:46:16;;;;;;;1.40;0.70;;;-1.00;99.90;;;;;;4973803;28;20408;-76
2022/01/27 09:48:45;;;;;;;2.80;1.20;;;-0.70;99.90;;;;;;4972841;28;20459;-76
2022/01/27 09:51:56;;;;;;;0.40;0.20;;;-0.90;99.90;;;;;;4973273;28;20737;-76
2022/01/27 09:53:57;;;;;;;0.70;0.60;;;-0.70;99.90;;;;;;4965873;28;20456;-76
2022/01/27 09:56:24;;;;;;;0.80;0.60;;;-0.50;99.90;;;;;;4972985;28;20749;-76
2022/01/27 09:58:50;;;;;;;0.40;0.20;;;-0.30;99.90;;;;;;4981163;28;20385;-75
2022/01/27 10:01:16;;;;;;;0.40;0.40;;;-0.40;99.90;;;;;;4991113;28;20387;-75
2022/01/27 10:03:58;;;;;;;0.60;0.60;;;-0.60;99.90;;;;;;4991144;28;20398;-76
2022/01/27 10:06:30;;;;;;;0.93;0.93;;;-0.80;99.90;;;;;;4991997;28;20477;-76
2022/01/27 10:09:16;;;;;;;0.40;0.20;;;-0.80;99.90;;;;;;4991311;28;21100;-76
2022/01/27 10:11:48;;;;;;;0.40;0.20;;;-0.70;99.90;;;;;;4991609;28;20395;-76
2022/01/27 10:14:24;;;;;;;1.83;1.27;;;-0.50;99.90;;;;;;4992337;28;20387;-75
2022/01/27 10:16:56;;;;;;;0.40;0.30;;;-0.60;99.90;;;;;;4991510;28;20433;-75
2022/01/27 10:19:23;;;;;;;0.40;0.20;;;-0.70;99.90;;;;;;4992355;28;20481;-76
2022/01/27 10:21:50;;;;;;;1.30;0.60;;;-0.70;99.90;;;;;;4991334;28;20474;-76
2022/01/27 10:24:22;;;;;;;0.50;0.50;;;-0.70;99.90;;;;;;4992027;28;20394;-76
2022/01/27 10:26:54;;;;;;;0.40;0.30;;;-0.70;99.90;;;;;;4991467;28;20610;-76
2022/01/27 10:29:37;;;;;;;0.40;0.40;;;-0.50;99.90;;;;;;4992056;28;20415;-76
2022/01/27 10:32:08;;;;;;;0.40;0.30;;;-0.60;99.90;;;;;;4991344;28;20816;-76
2022/01/27 10:34:53;;;;;;;0.40;0.20;;;-0.70;99.90;;;;;;4991763;28;20399;-76
2022/01/27 10:37:19;;;;;;;0.40;0.28;;;-0.70;99.90;;;;;;4991707;28;20453;-76
2022/01/27 10:39:47;;;;;;;0.40;0.30;;;-0.50;99.90;;;;;;4991862;28;20387;-76
2022/01/27 10:42:13;;;;;;;0.40;0.30;;;-0.40;99.90;;;;;;4989853;28;20654;-77
2022/01/27 10:44:55;;;;;;;0.40;0.30;;;-0.60;99.90;;;;;;4991514;28;20957;-77
2022/01/27 10:47:27;;;;;;;0.40;0.20;;;-0.50;99.90;;;;;;4991042;28;20401;-77
2022/01/27 10:49:59;;;;;;;0.40;0.20;;;-0.30;99.90;;;;;;4991708;28;20409;-77
2022/01/27 10:54:59;;;;;;;2.60;0.90;;;-0.20;99.90;;;;;;4991813;28;20434;-77
2022/01/27 10:57:25;;;;;;;3.80;0.90;;;-0.20;99.90;;;;;;4990894;28;20429;-77
2022/01/27 11:00:11;;;;;;;0.40;0.20;;;-0.10;99.90;;;;;;4973206;28;20400;-77
2022/01/27 11:02:51;;;;;;;0.40;0.20;;;0.00;99.90;;;;;;4971182;28;20801;-77
2022/01/27 11:05:26;;;;;;;0.43;0.43;;;0.10;99.90;;;;;;4970977;28;20506;-76
2022/01/27 11:07:53;;;;;;;0.40;0.40;;;0.10;99.90;;;;;;4972264;28;20411;-77
2022/01/27 11:10:20;;;;;;;0.40;0.30;;;0.00;99.90;;;;;;4971802;28;20405;-77
2022/01/27 11:12:46;;;;;;;0.50;0.50;;;-0.30;99.90;;;;;;4972089;28;20785;-77
2022/01/27 11:15:15;;;;;;;0.40;0.30;;;-0.20;99.90;;;;;;4971323;28;20950;-77
2022/01/27 11:17:42;;;;;;;0.70;0.70;;;-0.50;99.90;;;;;;4971960;28;20389;-76
2022/01/27 11:23:21;;;;;;;0.40;0.30;;;-0.30;99.90;;;;;;4971897;28;20419;-76
2022/01/27 11:25:52;;;;;;;0.70;0.60;;;-0.50;99.90;;;;;;4971657;28;20494;-76
2022/01/27 11:28:20;;;;;;;0.40;0.20;;;-0.60;99.90;;;;;;4971753;28;20395;-76
2022/01/27 11:31:24;;;;;;;0.40;0.35;;;-0.40;99.90;;;;;;4972247;28;20392;-76
2022/01/27 11:34:02;;;;;;;0.80;0.50;;;-0.50;99.90;;;;;;4971732;28;20388;-76
2022/01/27 11:36:29;;;;;;;0.43;0.30;;;-0.80;99.90;;;;;;4970774;28;20408;-77
2022/01/27 11:38:55;;;;;;;0.40;0.20;;;-1.00;99.90;;;;;;4971796;28;20753;-77
2022/01/27 11:41:44;;;;;;;0.40;0.40;;;-0.40;99.90;;;;;;4971951;28;20451;-77
2022/01/27 11:44:23;;;;;;;0.50;0.50;;;-0.30;99.90;;;;;;4971928;28;20392;-76
2022/01/27 11:47:11;;;;;;;0.80;0.80;;;-0.80;99.90;;;;;;4971071;28;20392;-77
2022/01/27 11:49:54;;;;;;;0.40;0.20;;;-0.50;99.90;;;;;;4970903;28;20393;-77
2022/01/27 11:52:22;;;;;;;0.70;0.70;;;-0.50;99.90;;;;;;4970187;28;20404;-77
2022/01/27 11:54:48;;;;;;;0.40;0.20;;;-0.40;99.90;;;;;;4970773;28;20408;-77
2022/01/27 11:57:40;;;;;;;0.40;0.20;;;-0.50;99.90;;;;;;4971319;28;20446;-77
2022/01/27 12:00:17;;;;;;;0.40;0.20;;;-0.70;99.90;;;;;;4992273;28;20398;-76
2022/01/27 12:03:01;;;;;;;0.40;0.30;;;-0.80;99.90;;;;;;4994049;28;20500;-77
2022/01/27 12:05:36;;;;;;;0.40;0.20;;;-0.80;99.90;;;;;;4994254;28;20433;-76
2022/01/27 12:08:14;;;;;;;0.40;0.20;;;-0.40;99.90;;;;;;4993261;28;20425;-77
2022/01/27 12:10:44;;;;;;;1.48;0.95;;;-0.30;99.90;;;;;;4994699;28;20394;-77
2022/01/27 12:19:09;;;;;;;0.40;0.20;;;-0.20;99.90;;;;;;4994513;28;20399;-76
2022/01/27 12:21:40;;;;;;;0.40;0.30;;;0.10;99.90;;;;;;4994590;28;20390;-76
2022/01/27 12:24:11;;;;;;;0.40;0.38;;;0.40;99.90;;;;;;4993912;28;20393;-76
2022/01/27 12:26:54;;;;;;;0.40;0.20;;;0.80;99.90;;;;;;4994612;28;20483;-76
2022/01/27 12:29:28;;;;;;;0.40;0.20;;;1.30;99.90;;;;;;4994359;28;20402;-76
2022/01/27 12:31:57;;;;;;;0.40;0.25;;;1.70;99.90;;;;;;4994071;28;20414;-76
2022/01/27 12:34:23;;;;;;;0.40;0.20;;;1.70;99.90;;;;;;4993879;28;20395;-76
2022/01/27 12:37:18;;;;;;;0.40;0.20;;;1.70;99.90;;;;;;4978241;28;20780;-76
2022/01/27 12:39:54;;;;;;;0.40;0.20;;;3.00;99.90;;;;;;4988522;28;20476;-76
2022/01/27 12:42:20;;;;;;;0.60;0.50;;;3.00;99.90;;;;;;4987375;28;20494;-75
2022/01/27 12:44:57;;;;;;;1.10;0.90;;;3.00;99.90;;;;;;4978054;28;20408;-76
2022/01/27 12:47:25;;;;;;;0.60;0.50;;;3.20;99.90;;;;;;4977075;28;20398;-76
2022/01/27 12:50:07;;;;;;;2.85;1.00;;;3.90;99.90;;;;;;4979398;28;20430;-75
2022/01/27 12:52:39;;;;;;;0.40;0.20;;;3.50;99.90;;;;;;4974967;28;20389;-75
2022/01/27 12:55:06;;;;;;;0.50;0.50;;;3.10;99.90;;;;;;4974239;28;20387;-75
2022/01/27 12:57:32;;;;;;;0.40;0.20;;;3.40;99.90;;;;;;4974219;28;20393;-73
2022/01/27 13:00:00;;;;;;;0.40;0.32;;;3.60;99.90;;;;;;4992305;28;20433;-74
2022/01/27 13:02:28;;;;;;;0.60;0.60;;;2.70;99.90;;;;;;4993044;28;20390;-73
2022/01/27 13:04:58;;;;;;;0.40;0.20;;;2.40;99.90;;;;;;4993616;28;20507;-73
2022/01/27 13:07:26;;;;;;;1.50;0.90;;;2.30;99.90;;;;;;4992988;28;20414;-74
2022/01/27 13:10:00;;;;;;;0.60;0.60;;;2.30;99.90;;;;;;4993376;28;20387;-75
2022/01/27 13:12:32;;;;;;;0.40;0.30;;;1.90;99.90;;;;;;4989362;28;20392;-74
2022/01/27 13:15:05;;;;;;;0.40;0.30;;;2.50;99.90;;;;;;4974455;28;20403;-74
2022/01/27 13:18:18;;;;;;;0.40;0.20;;;2.30;99.90;;;;;;4984256;28;20392;-75
2022/01/27 13:20:28;;;;;;;0.40;0.20;;;2.40;99.90;;;;;;4981109;28;20510;-74
2022/01/27 13:22:57;;;;;;;1.20;0.70;;;2.80;99.90;;;;;;4993411;28;20475;-73
2022/01/27 13:25:24;;;;;;;1.20;1.10;;;2.80;99.90;;;;;;4992877;28;20410;-75
2022/01/27 13:28:25;;;;;;;0.40;0.30;;;2.60;99.90;;;;;;4993675;28;20398;-74
2022/01/27 13:31:13;;;;;;;0.50;0.50;;;2.00;99.90;;;;;;4971471;28;20461;-74
2022/01/27 13:33:44;;;;;;;0.40;0.20;;;2.00;99.90;;;;;;4992530;28;20549;-75
2022/01/27 13:36:25;;;;;;;0.40;0.20;;;2.10;99.90;;;;;;4992989;28;20410;-75
2022/01/27 13:39:36;;;;;;;0.40;0.20;;;2.30;99.90;;;;;;4992374;28;20410;-75
2022/01/27 13:42:08;;;;;;;0.80;0.80;;;2.30;99.90;;;;;;4991804;28;21010;-76
2022/01/27 13:44:34;;;;;;;0.40;0.20;;;2.40;99.90;;;;;;4992494;28;20426;-76
2022/01/27 13:47:05;;;;;;;1.13;0.68;;;2.50;99.90;;;;;;4979955;28;20474;-73